Punta Salinas — EABF — position and weather

sailwx.info

Track history (hours):
 
Tides and Currents Weather Stations Pressure Air Temp Water Temp Dewpoint Dewpoint Depression Visibility Wind Speed Wind Dir Waves Ship Positions

Punta Salinas

Last reported at 2015-Apr-13 10:32 UTC. Time now 2015-Apr-19 12:41 UTC.
Position N 27°46' W 014°33'.

; draft 5 m.

Type: SAR. MMSI: 224522000.

Date/timePositionNaut miles runAvg speedWind from/ knotsBaromVisibWave heightAir tempDewpointWater temp
2015-Apr-13 10:32N 27°46' W 014°33'6 0.7
2015-Apr-13 01:29N 27°45' W 014°40'2 1.9
2015-Apr-13 00:29N 27°46' W 014°42'2 1.9
2015-Apr-12 23:27N 27°46' W 014°45'2 1.8
2015-Apr-12 22:26N 27°46' W 014°47'2 1.6
2015-Apr-12 21:14N 27°46' W 014°49'1 1.6
2015-Apr-12 20:33N 27°46' W 014°50'1 1.3
2015-Apr-12 19:29N 27°45' W 014°51'1 1.0
2015-Apr-12 18:17N 27°46' W 014°52'1 1.6
2015-Apr-12 17:33N 27°46' W 014°53'1 1.5
2015-Apr-12 16:33N 27°46' W 014°55'2 1.7
2015-Apr-12 15:29N 27°47' W 014°56'2 1.8
2015-Apr-12 14:31N 27°48' W 014°58'2 1.7
2015-Apr-12 13:33N 27°49' W 014°60'2 1.6
2015-Apr-12 12:33N 27°50' W 015°01'2 2.2
2015-Apr-12 11:32N 27°52' W 015°02'2 2.1
2015-Apr-12 10:32N 27°54' W 015°03'2 2.3
2015-Apr-12 09:33N 27°56' W 015°05'1211.9
2015-Apr-12 08:33N 28°03' W 015°15'1211.6
2015-Apr-12 07:33N 28°12' W 015°24'1211.6
2015-Apr-12 06:33N 28°17' W 015°36'1211.5
2015-Apr-12 05:33N 28°21' W 015°48'1110.8
2015-Apr-12 04:32N 28°24' W 015°60'9 8.5
2015-Apr-12 03:27N 28°28' W 016°10'  
Track history (hours):
 
Tides and Currents Weather Stations Pressure Air Temp Water Temp Dewpoint Dewpoint Depression Visibility Wind Speed Wind Dir Waves Ship Positions

Punta Salinas

Last reported at 2015-Apr-13 10:32 UTC. Time now 2015-Apr-19 12:41 UTC.
Position N 27°46' W 014°33'.

; draft 5 m.

Type: SAR. MMSI: 224522000.

Date/timePositionNaut miles runAvg speedWind from/ knotsBaromVisibWave heightAir tempDewpointWater temp
2015-Apr-13 10:32N 27°46' W 014°33'6 0.7
2015-Apr-13 01:29N 27°45' W 014°40'2 1.9
2015-Apr-13 00:29N 27°46' W 014°42'2 1.9
2015-Apr-12 23:27N 27°46' W 014°45'2 1.8
2015-Apr-12 22:26N 27°46' W 014°47'2 1.6
2015-Apr-12 21:14N 27°46' W 014°49'1 1.6
2015-Apr-12 20:33N 27°46' W 014°50'1 1.3
2015-Apr-12 19:29N 27°45' W 014°51'1 1.0
2015-Apr-12 18:17N 27°46' W 014°52'1 1.6
2015-Apr-12 17:33N 27°46' W 014°53'1 1.5
2015-Apr-12 16:33N 27°46' W 014°55'2 1.7
2015-Apr-12 15:29N 27°47' W 014°56'2 1.8
2015-Apr-12 14:31N 27°48' W 014°58'2 1.7
2015-Apr-12 13:33N 27°49' W 014°60'2 1.6
2015-Apr-12 12:33N 27°50' W 015°01'2 2.2
2015-Apr-12 11:32N 27°52' W 015°02'2 2.1
2015-Apr-12 10:32N 27°54' W 015°03'2 2.3
2015-Apr-12 09:33N 27°56' W 015°05'1211.9
2015-Apr-12 08:33N 28°03' W 015°15'1211.6
2015-Apr-12 07:33N 28°12' W 015°24'1211.6
2015-Apr-12 06:33N 28°17' W 015°36'1211.5
2015-Apr-12 05:33N 28°21' W 015°48'1110.8
2015-Apr-12 04:32N 28°24' W 015°60'9 8.5
2015-Apr-12 03:27N 28°28' W 016°10'  

Dump ship's entire track history